Charlotte, NC (28216)

2:41 AM EDT on April 21, 2015 (GMT -0400)
allen hills | | Change Station
CLOSE
Current Station
Personal Weather Station
Location: Charlotte, NC
Elevation: 807 ft
Nearby Weather Stations

Elev 807 ft 35.29 °N, 80.80 °W | Updated 4 seconds ago

Partly Cloudy
Partly Cloudy
59.0 °F
Feels Like 59.0 °F
N
1.2
Wind Variable Wind from West
Gusts 1.4 mph

Today
High -- | Low -- °F
--% Chance of Precip.
Yesterday
High -- | Low -- °F
Precip. -- in
6:43 AM 8:01 PM
Waxing Crescent, 8% visible
Pressure 29.75 in
Visibility 10.0 miles
Clouds Scattered Clouds 3500 ft
Dew Point 26 °F
Humidity 28%
Rainfall 0.00 in
Snow Depth Not available.
UV 0 out of 12
Pollen 8.40 out of 12
Air Quality Not available.
Flu Activity Sporadic
METAR KCLT 210552Z 31003KT 10SM SCT035 15/13 A2977 RMK AO2 SLP075 T01500128 10178 20144 53020

More Conditions Fewer Conditions

Pressure 29.75 in
Visibility 10.0 miles
Clouds Scattered Clouds 3500 ft
Dew Point 26 °F
Humidity 28%
Rainfall 0.00 in
Snow Depth Not available.
UV 0 out of 12
Pollen 8.40 out of 12
Air Quality Not available.
Flu Activity Sporadic
METAR KCLT 210552Z 31003KT 10SM SCT035 15/13 A2977 RMK AO2 SLP075 T01500128 10178 20144 53020

More Conditions Fewer Conditions

10-Day Weather Forecast

Almanac

Astronomy

Apr. 21, 2015 Rise Set
Actual Time
Civil Twilight
Nautical Twilight
Astronomical Twilight
Moon
Length of Visible Light
Length of Day
Tomorrow will be .
, % of the Moon is Illuminated

Today's Extremes

State Highs State Lows

Community

WunderPhotos

Upload Photos

1,815,321 photos uploaded!

WunderBlogs® & News

Nearby

Air Quality

  Air Quality AQ Index Pollutant
Not available.

Snow Depth

Station Depth Elevation

Earthquake Activity

City Distance Mag. Time & Date
Minimum magnitude displayed is 2.5.

Coastal Water Temperatures

Place Temperature

Stations

Nearby Weather Stations

Station Location Temp. Windchill Dew Point Humidity Wind Precip. Elev Updated Type